sensor_id;sensor_type;location;lat;lon;timestamp;pressure;altitude;pressure_sealevel;temperature;humidity
55291;BME280;41155;39.768;2.712;2023-01-29T00:01:53;101803.56;;;6.85;100.00
55291;BME280;41155;39.768;2.712;2023-01-29T00:04:18;101794.66;;;6.78;100.00
55291;BME280;41155;39.768;2.712;2023-01-29T00:06:44;101793.66;;;6.86;100.00
55291;BME280;41155;39.768;2.712;2023-01-29T00:09:10;101809.16;;;6.90;100.00
55291;BME280;41155;39.768;2.712;2023-01-29T00:11:36;101791.22;;;6.97;100.00
55291;BME280;41155;39.768;2.712;2023-01-29T00:14:01;101797.63;;;6.96;100.00
55291;BME280;41155;39.768;2.712;2023-01-29T00:16:27;101791.22;;;6.97;100.00
55291;BME280;41155;39.768;2.712;2023-01-29T00:18:52;101804.44;;;6.99;100.00
55291;BME280;41155;39.768;2.712;2023-01-29T00:21:20;101789.63;;;7.10;100.00
55291;BME280;41155;39.768;2.712;2023-01-29T00:23:47;101780.69;;;7.02;100.00
55291;BME280;41155;39.768;2.712;2023-01-29T00:26:13;101792.06;;;7.05;100.00
55291;BME280;41155;39.768;2.712;2023-01-29T00:28:39;101798.50;;;7.17;100.00
55291;BME280;41155;39.768;2.712;2023-01-29T00:31:30;101786.34;;;7.21;100.00
55291;BME280;41155;39.768;2.712;2023-01-29T00:33:56;101793.69;;;6.99;100.00
55291;BME280;41155;39.768;2.712;2023-01-29T00:36:24;101790.91;;;7.20;100.00
55291;BME280;41155;39.768;2.712;2023-01-29T00:38:57;101794.22;;;7.29;100.00
55291;BME280;41155;39.768;2.712;2023-01-29T00:41:26;101787.56;;;7.12;100.00
55291;BME280;41155;39.768;2.712;2023-01-29T00:44:10;101759.19;;;6.96;100.00
55291;BME280;41155;39.768;2.712;2023-01-29T00:46:55;101802.47;;;7.21;100.00
55291;BME280;41155;39.768;2.712;2023-01-29T00:49:20;101779.94;;;7.22;100.00
55291;BME280;41155;39.768;2.712;2023-01-29T00:51:46;101794.41;;;7.34;100.00
55291;BME280;41155;39.768;2.712;2023-01-29T00:54:31;101802.94;;;7.44;100.00
55291;BME280;41155;39.768;2.712;2023-01-29T00:56:57;101788.22;;;7.40;100.00
55291;BME280;41155;39.768;2.712;2023-01-29T00:59:22;101784.31;;;7.36;100.00
55291;BME280;41155;39.768;2.712;2023-01-29T01:01:48;101779.56;;;7.38;100.00
55291;BME280;41155;39.768;2.712;2023-01-29T01:04:32;101792.56;;;7.28;100.00
55291;BME280;41155;39.768;2.712;2023-01-29T01:06:57;101802.03;;;7.17;100.00
55291;BME280;41155;39.768;2.712;2023-01-29T01:09:23;101783.91;;;7.33;100.00
55291;BME280;41155;39.768;2.712;2023-01-29T01:12:07;101785.34;;;7.35;100.00
55291;BME280;41155;39.768;2.712;2023-01-29T01:14:32;101779.56;;;7.38;100.00
55291;BME280;41155;39.768;2.712;2023-01-29T01:17:00;101790.31;;;7.38;100.00
55291;BME280;41155;39.768;2.712;2023-01-29T01:19:25;101802.53;;;7.41;100.00
55291;BME280;41155;39.768;2.712;2023-01-29T01:21:51;101796.94;;;7.49;100.00
55291;BME280;41155;39.768;2.712;2023-01-29T01:24:16;101808.72;;;7.55;100.00
55291;BME280;41155;39.768;2.712;2023-01-29T01:26:42;101804.41;;;7.54;100.00
55291;BME280;41155;39.768;2.712;2023-01-29T01:29:07;101793.88;;;7.59;100.00
55291;BME280;41155;39.768;2.712;2023-01-29T01:31:33;101779.78;;;7.50;100.00
55291;BME280;41155;39.768;2.712;2023-01-29T01:33:58;101798.38;;;7.52;100.00
55291;BME280;41155;39.768;2.712;2023-01-29T01:36:24;101798.38;;;7.52;100.00
55291;BME280;41155;39.768;2.712;2023-01-29T01:38:49;101791.59;;;7.56;100.00
55291;BME280;41155;39.768;2.712;2023-01-29T01:41:18;101792.63;;;7.61;100.00
55291;BME280;41155;39.768;2.712;2023-01-29T01:44:00;101796.31;;;7.54;99.25
55291;BME280;41155;39.768;2.712;2023-01-29T01:46:34;101795.50;;;7.46;99.90
55291;BME280;41155;39.768;2.712;2023-01-29T01:49:04;101795.91;;;7.43;100.00
55291;BME280;41155;39.768;2.712;2023-01-29T01:51:34;101797.97;;;7.55;100.00
55291;BME280;41155;39.768;2.712;2023-01-29T01:54:12;101801.94;;;7.52;100.00
55291;BME280;41155;39.768;2.712;2023-01-29T01:56:43;101799.63;;;7.49;100.00
55291;BME280;41155;39.768;2.712;2023-01-29T01:59:16;101814.50;;;7.52;100.00
55291;BME280;41155;39.768;2.712;2023-01-29T02:01:45;101800.88;;;7.46;99.15
55291;BME280;41155;39.768;2.712;2023-01-29T02:04:17;101798.59;;;7.57;99.29
55291;BME280;41155;39.768;2.712;2023-01-29T02:07:04;101793.00;;;7.52;100.00
55291;BME280;41155;39.768;2.712;2023-01-29T02:12:26;101799.00;;;7.54;99.38
55291;BME280;41155;39.768;2.712;2023-01-29T02:14:55;101797.78;;;7.56;100.00
55291;BME280;41155;39.768;2.712;2023-01-29T02:17:21;101805.44;;;7.66;100.00
55291;BME280;41155;39.768;2.712;2023-01-29T02:28:31;101796.97;;;7.82;96.61
55291;BME280;41155;39.768;2.712;2023-01-29T02:34:05;101799.88;;;7.81;97.89
55291;BME280;41155;39.768;2.712;2023-01-29T02:37:09;101808.38;;;7.84;98.84
55291;BME280;41155;39.768;2.712;2023-01-29T02:39:44;101798.81;;;7.75;99.75
55291;BME280;41155;39.768;2.712;2023-01-29T02:42:27;101807.50;;;7.77;97.63
55291;BME280;41155;39.768;2.712;2023-01-29T02:44:59;101807.31;;;7.72;98.22
55291;BME280;41155;39.768;2.712;2023-01-29T02:47:56;101809.34;;;7.63;98.75
55291;BME280;41155;39.768;2.712;2023-01-29T02:50:45;101813.91;;;7.63;100.00
55291;BME280;41155;39.768;2.712;2023-01-29T02:53:26;101812.50;;;7.67;99.64
55291;BME280;41155;39.768;2.712;2023-01-29T02:59:36;101810.00;;;7.59;98.21
55291;BME280;41155;39.768;2.712;2023-01-29T03:02:09;101798.38;;;7.52;97.77
55291;BME280;41155;39.768;2.712;2023-01-29T03:04:39;101811.66;;;7.73;95.84
55291;BME280;41155;39.768;2.712;2023-01-29T03:07:09;101815.41;;;7.79;95.79
55291;BME280;41155;39.768;2.712;2023-01-29T03:09:59;101759.31;;;7.36;94.31
55291;BME280;41155;39.768;2.712;2023-01-29T03:12:27;101817.88;;;7.87;90.98
55291;BME280;41155;39.768;2.712;2023-01-29T03:15:15;101826.16;;;7.79;93.56
55291;BME280;41155;39.768;2.712;2023-01-29T03:17:52;101823.03;;;7.68;95.24
55291;BME280;41155;39.768;2.712;2023-01-29T03:20:23;101818.69;;;7.67;95.36
55291;BME280;41155;39.768;2.712;2023-01-29T03:22:59;101823.25;;;7.67;97.02
55291;BME280;41155;39.768;2.712;2023-01-29T03:25:27;101825.72;;;7.62;97.16
55291;BME280;41155;39.768;2.712;2023-01-29T03:28:13;101814.31;;;7.60;93.23
55291;BME280;41155;39.768;2.712;2023-01-29T03:31:02;101825.72;;;7.62;95.02
55291;BME280;41155;39.768;2.712;2023-01-29T03:34:14;101807.31;;;7.59;96.07
55291;BME280;41155;39.768;2.712;2023-01-29T03:36:53;101826.34;;;7.64;95.86
55291;BME280;41155;39.768;2.712;2023-01-29T03:39:20;101833.59;;;7.70;96.54
55291;BME280;41155;39.768;2.712;2023-01-29T03:41:53;101836.03;;;7.65;95.19
55291;BME280;41155;39.768;2.712;2023-01-29T03:46:55;101818.28;;;7.77;92.72
55291;BME280;41155;39.768;2.712;2023-01-29T03:49:53;101818.09;;;7.79;92.95
55291;BME280;41155;39.768;2.712;2023-01-29T03:52:30;101799.22;;;7.72;93.61
55291;BME280;41155;39.768;2.712;2023-01-29T03:57:44;101813.31;;;7.74;96.03
55291;BME280;41155;39.768;2.712;2023-01-29T04:00:18;101814.53;;;7.65;97.06
55291;BME280;41155;39.768;2.712;2023-01-29T04:02:57;101813.28;;;7.47;94.79
55291;BME280;41155;39.768;2.712;2023-01-29T04:05:30;101810.81;;;7.59;93.38
55291;BME280;41155;39.768;2.712;2023-01-29T04:08:04;101805.63;;;7.58;95.41
55291;BME280;41155;39.768;2.712;2023-01-29T04:10:33;101811.00;;;7.58;95.10
55291;BME280;41155;39.768;2.712;2023-01-29T04:13:08;101805.84;;;7.63;93.50
55291;BME280;41155;39.768;2.712;2023-01-29T04:15:42;101811.84;;;7.58;91.24
55291;BME280;41155;39.768;2.712;2023-01-29T04:18:09;101806.66;;;7.57;91.17
55291;BME280;41155;39.768;2.712;2023-01-29T04:20:35;101807.53;;;7.64;92.40
55291;BME280;41155;39.768;2.712;2023-01-29T04:23:01;101801.72;;;7.67;92.33
55291;BME280;41155;39.768;2.712;2023-01-29T04:25:36;101801.91;;;7.72;93.80
55291;BME280;41155;39.768;2.712;2023-01-29T04:28:24;101800.28;;;7.71;93.15
55291;BME280;41155;39.768;2.712;2023-01-29T04:30:59;101794.72;;;7.79;91.16
55291;BME280;41155;39.768;2.712;2023-01-29T04:36:34;101803.78;;;7.98;88.55
55291;BME280;41155;39.768;2.712;2023-01-29T04:42:13;101808.56;;;7.89;87.60
55291;BME280;41155;39.768;2.712;2023-01-29T04:50:14;101809.19;;;7.85;90.07
55291;BME280;41155;39.768;2.712;2023-01-29T04:55:37;101801.94;;;7.85;91.28
55291;BME280;41155;39.768;2.712;2023-01-29T04:58:11;101813.31;;;7.74;89.74
55291;BME280;41155;39.768;2.712;2023-01-29T05:00:42;101810.63;;;7.74;90.22
55291;BME280;41155;39.768;2.712;2023-01-29T05:03:10;101808.34;;;7.71;88.00
55291;BME280;41155;39.768;2.712;2023-01-29T05:05:40;101817.25;;;7.78;85.83
55291;BME280;41155;39.768;2.712;2023-01-29T05:08:07;101813.31;;;7.67;89.55
55291;BME280;41155;39.768;2.712;2023-01-29T05:10:34;101827.78;;;7.73;91.17
55291;BME280;41155;39.768;2.712;2023-01-29T05:13:03;101822.38;;;7.66;91.91
55291;BME280;41155;39.768;2.712;2023-01-29T05:18:17;101836.47;;;7.68;91.24
55291;BME280;41155;39.768;2.712;2023-01-29T05:20:43;101830.69;;;7.78;91.31
55291;BME280;41155;39.768;2.712;2023-01-29T05:23:14;101836.88;;;7.72;90.59
55291;BME280;41155;39.768;2.712;2023-01-29T05:25:40;101841.00;;;7.68;89.04
55291;BME280;41155;39.768;2.712;2023-01-29T05:28:07;101839.38;;;7.67;89.01
55291;BME280;41155;39.768;2.712;2023-01-29T05:30:49;101849.69;;;7.57;90.76
55291;BME280;41155;39.768;2.712;2023-01-29T05:35:45;101863.28;;;7.48;93.31
55291;BME280;41155;39.768;2.712;2023-01-29T05:38:11;101854.41;;;7.48;94.60
55291;BME280;41155;39.768;2.712;2023-01-29T05:40:37;101857.25;;;7.33;93.58
55291;BME280;41155;39.768;2.712;2023-01-29T05:43:03;101858.09;;;7.34;94.26
55291;BME280;41155;39.768;2.712;2023-01-29T05:45:29;101851.94;;;7.46;94.06
55291;BME280;41155;39.768;2.712;2023-01-29T05:47:58;101866.16;;;7.40;93.09
55291;BME280;41155;39.768;2.712;2023-01-29T05:50:25;101863.28;;;7.48;94.02
55291;BME280;41155;39.768;2.712;2023-01-29T05:53:00;101874.28;;;7.54;94.34
55291;BME280;41155;39.768;2.712;2023-01-29T05:55:27;101874.50;;;7.65;93.41
55291;BME280;41155;39.768;2.712;2023-01-29T05:57:54;101865.41;;;7.60;93.10
55291;BME280;41155;39.768;2.712;2023-01-29T06:00:19;101868.72;;;7.62;92.69
55291;BME280;41155;39.768;2.712;2023-01-29T06:02:45;101861.69;;;7.61;91.98
55291;BME280;41155;39.768;2.712;2023-01-29T06:05:10;101880.50;;;7.67;92.75
55291;BME280;41155;39.768;2.712;2023-01-29T06:07:36;101887.16;;;7.78;92.54
55291;BME280;41155;39.768;2.712;2023-01-29T06:10:04;101871.22;;;7.77;92.89
55291;BME280;41155;39.768;2.712;2023-01-29T06:12:30;101885.91;;;7.74;90.70
55291;BME280;41155;39.768;2.712;2023-01-29T06:14:55;101893.19;;;7.87;89.03
55291;BME280;41155;39.768;2.712;2023-01-29T06:17:21;101899.19;;;7.96;87.23
55291;BME280;41155;39.768;2.712;2023-01-29T06:19:46;101901.88;;;7.96;88.03
55291;BME280;41155;39.768;2.712;2023-01-29T06:22:12;101907.44;;;8.01;86.84
55291;BME280;41155;39.768;2.712;2023-01-29T06:24:37;101875.78;;;7.69;87.29
55291;BME280;41155;39.768;2.712;2023-01-29T06:27:03;101906.41;;;7.95;87.56
55291;BME280;41155;39.768;2.712;2023-01-29T06:29:31;101916.34;;;7.95;89.15
55291;BME280;41155;39.768;2.712;2023-01-29T06:31:57;101913.44;;;7.89;89.52
55291;BME280;41155;39.768;2.712;2023-01-29T06:34:22;101907.00;;;7.84;89.44
55291;BME280;41155;39.768;2.712;2023-01-29T06:36:48;101921.13;;;8.06;87.85
55291;BME280;41155;39.768;2.712;2023-01-29T06:39:13;101922.59;;;8.02;88.54
55291;BME280;41155;39.768;2.712;2023-01-29T06:41:39;101916.75;;;7.98;84.03
55291;BME280;41155;39.768;2.712;2023-01-29T06:44:04;101928.16;;;8.00;83.67
55291;BME280;41155;39.768;2.712;2023-01-29T06:46:30;101936.63;;;8.04;85.07
55291;BME280;41155;39.768;2.712;2023-01-29T06:48:58;101949.66;;;8.00;85.69
55291;BME280;41155;39.768;2.712;2023-01-29T06:51:26;101940.59;;;8.08;82.26
55291;BME280;41155;39.768;2.712;2023-01-29T06:53:52;101926.88;;;7.89;81.38
55291;BME280;41155;39.768;2.712;2023-01-29T06:56:20;101948.66;;;8.08;80.60
55291;BME280;41155;39.768;2.712;2023-01-29T06:58:46;101956.72;;;8.08;83.76
55291;BME280;41155;39.768;2.712;2023-01-29T07:01:12;101919.03;;;7.81;83.99
55291;BME280;41155;39.768;2.712;2023-01-29T07:03:48;101937.44;;;7.98;85.22
55291;BME280;41155;39.768;2.712;2023-01-29T07:06:13;101954.44;;;8.11;83.75
55291;BME280;41155;39.768;2.712;2023-01-29T07:08:39;101961.28;;;8.14;81.72
55291;BME280;41155;39.768;2.712;2023-01-29T07:11:05;101964.81;;;8.21;79.80
55291;BME280;41155;39.768;2.712;2023-01-29T07:13:31;101968.72;;;8.12;82.30
55291;BME280;41155;39.768;2.712;2023-01-29T07:15:58;101954.44;;;8.05;82.84
55291;BME280;41155;39.768;2.712;2023-01-29T07:18:24;101958.16;;;8.04;84.12
55291;BME280;41155;39.768;2.712;2023-01-29T07:20:50;101975.56;;;8.14;84.91
55291;BME280;41155;39.768;2.712;2023-01-29T07:23:16;101976.56;;;8.07;82.83
55291;BME280;41155;39.768;2.712;2023-01-29T07:25:42;101987.56;;;8.12;83.60
55291;BME280;41155;39.768;2.712;2023-01-29T07:28:17;101978.66;;;8.11;81.96
55291;BME280;41155;39.768;2.712;2023-01-29T07:30:43;101964.16;;;8.06;81.92
55291;BME280;41155;39.768;2.712;2023-01-29T07:33:09;101995.25;;;8.22;83.38
55291;BME280;41155;39.768;2.712;2023-01-29T07:35:37;101988.38;;;8.06;79.99
55291;BME280;41155;39.768;2.712;2023-01-29T07:38:03;101973.69;;;8.02;81.63
55291;BME280;41155;39.768;2.712;2023-01-29T07:40:29;101993.81;;;8.26;79.48
55291;BME280;41155;39.768;2.712;2023-01-29T07:42:58;101998.78;;;8.35;79.58
55291;BME280;41155;39.768;2.712;2023-01-29T07:45:24;102007.03;;;8.27;80.49
55291;BME280;41155;39.768;2.712;2023-01-29T07:47:53;102018.25;;;8.31;80.31
55291;BME280;41155;39.768;2.712;2023-01-29T07:50:23;102003.72;;;8.19;79.93
55291;BME280;41155;39.768;2.712;2023-01-29T07:52:54;102019.47;;;8.28;80.84
55291;BME280;41155;39.768;2.712;2023-01-29T07:55:20;102021.13;;;8.36;82.95
55291;BME280;41155;39.768;2.712;2023-01-29T07:57:45;102024.94;;;8.48;81.42
55291;BME280;41155;39.768;2.712;2023-01-29T08:00:12;102018.50;;;8.56;79.64
55291;BME280;41155;39.768;2.712;2023-01-29T08:02:39;102024.09;;;8.54;79.65
55291;BME280;41155;39.768;2.712;2023-01-29T08:05:05;102029.91;;;8.58;78.56
55291;BME280;41155;39.768;2.712;2023-01-29T08:07:31;102027.63;;;8.68;78.88
55291;BME280;41155;39.768;2.712;2023-01-29T08:09:56;102036.75;;;8.80;78.53
55291;BME280;41155;39.768;2.712;2023-01-29T08:12:22;102036.97;;;8.86;80.01
55291;BME280;41155;39.768;2.712;2023-01-29T08:14:47;102035.72;;;8.68;78.47
55291;BME280;41155;39.768;2.712;2023-01-29T08:17:13;102052.69;;;8.82;77.60
55291;BME280;41155;39.768;2.712;2023-01-29T08:19:38;102053.75;;;8.94;78.28
55291;BME280;41155;39.768;2.712;2023-01-29T08:22:04;102048.56;;;9.06;76.60
55291;BME280;41155;39.768;2.712;2023-01-29T08:24:30;102062.81;;;9.20;74.72
55291;BME280;41155;39.768;2.712;2023-01-29T08:26:55;102059.28;;;9.39;73.25
55291;BME280;41155;39.768;2.712;2023-01-29T08:29:21;102072.13;;;9.37;73.65
55291;BME280;41155;39.768;2.712;2023-01-29T08:31:46;102066.75;;;9.44;76.98
55291;BME280;41155;39.768;2.712;2023-01-29T08:34:12;102060.72;;;9.55;75.22
55291;BME280;41155;39.768;2.712;2023-01-29T08:36:37;102069.63;;;9.56;75.02
55291;BME280;41155;39.768;2.712;2023-01-29T08:39:03;102065.47;;;9.66;76.52
55291;BME280;41155;39.768;2.712;2023-01-29T08:41:28;102084.09;;;9.74;74.11
55291;BME280;41155;39.768;2.712;2023-01-29T08:43:54;102077.44;;;9.84;74.59
55291;BME280;41155;39.768;2.712;2023-01-29T08:46:19;102072.47;;;9.81;72.42
55291;BME280;41155;39.768;2.712;2023-01-29T08:48:45;102055.91;;;9.70;72.19
55291;BME280;41155;39.768;2.712;2023-01-29T08:51:11;102101.53;;;9.65;72.61
55291;BME280;41155;39.768;2.712;2023-01-29T08:53:37;102114.88;;;9.34;73.16
55291;BME280;41155;39.768;2.712;2023-01-29T08:56:02;102132.72;;;9.15;76.42
55291;BME280;41155;39.768;2.712;2023-01-29T08:58:28;102137.88;;;8.90;78.12
55291;BME280;41155;39.768;2.712;2023-01-29T09:00:53;102143.63;;;8.67;81.50
55291;BME280;41155;39.768;2.712;2023-01-29T09:03:19;102115.94;;;8.31;82.66
55291;BME280;41155;39.768;2.712;2023-01-29T09:05:44;102145.47;;;8.11;84.01
55291;BME280;41155;39.768;2.712;2023-01-29T09:08:11;102157.84;;;8.06;87.90
55291;BME280;41155;39.768;2.712;2023-01-29T09:10:36;102151.38;;;7.93;90.87
55291;BME280;41155;39.768;2.712;2023-01-29T09:13:02;102150.94;;;7.90;92.45
55291;BME280;41155;39.768;2.712;2023-01-29T09:15:28;102147.00;;;7.92;93.77
55291;BME280;41155;39.768;2.712;2023-01-29T09:17:54;102145.34;;;7.91;94.46
55291;BME280;41155;39.768;2.712;2023-01-29T09:20:19;102134.53;;;7.78;94.61
55291;BME280;41155;39.768;2.712;2023-01-29T09:22:45;102142.59;;;7.78;96.86
55291;BME280;41155;39.768;2.712;2023-01-29T09:25:11;102130.38;;;7.76;95.93
55291;BME280;41155;39.768;2.712;2023-01-29T09:27:37;102142.38;;;7.73;95.49
55291;BME280;41155;39.768;2.712;2023-01-29T09:30:04;102139.19;;;7.98;96.78
55291;BME280;41155;39.768;2.712;2023-01-29T09:32:29;102149.84;;;8.19;95.86
55291;BME280;41155;39.768;2.712;2023-01-29T09:34:56;102136.16;;;8.07;94.59
55291;BME280;41155;39.768;2.712;2023-01-29T09:37:21;102142.78;;;8.18;94.48
55291;BME280;41155;39.768;2.712;2023-01-29T09:39:48;102134.81;;;8.38;93.70
55291;BME280;41155;39.768;2.712;2023-01-29T09:44:47;102148.66;;;8.28;95.01
55291;BME280;41155;39.768;2.712;2023-01-29T09:47:17;102137.25;;;8.26;95.33
55291;BME280;41155;39.768;2.712;2023-01-29T09:49:48;102149.22;;;8.24;93.35
55291;BME280;41155;39.768;2.712;2023-01-29T09:52:27;102145.31;;;8.26;93.37
55291;BME280;41155;39.768;2.712;2023-01-29T10:00:14;102152.88;;;8.44;93.91
55291;BME280;41155;39.768;2.712;2023-01-29T10:08:50;102153.38;;;8.74;91.39
55291;BME280;41155;39.768;2.712;2023-01-29T10:14:55;102166.22;;;8.72;89.86
55291;BME280;41155;39.768;2.712;2023-01-29T10:25:35;102148.84;;;8.95;90.10
55291;BME280;41155;39.768;2.712;2023-01-29T10:28:17;102163.56;;;8.92;87.26
55291;BME280;41155;39.768;2.712;2023-01-29T10:30:49;102163.75;;;8.91;86.61
55291;BME280;41155;39.768;2.712;2023-01-29T10:33:29;102155.06;;;8.89;83.61
55291;BME280;41155;39.768;2.712;2023-01-29T10:36:02;102163.59;;;9.05;85.15
55291;BME280;41155;39.768;2.712;2023-01-29T10:38:38;102179.72;;;9.99;83.29
55291;BME280;41155;39.768;2.712;2023-01-29T10:55:07;102180.78;;;14.68;67.18
55291;BME280;41155;39.768;2.712;2023-01-29T11:00:34;102193.13;;;13.83;61.86
55291;BME280;41155;39.768;2.712;2023-01-29T11:08:20;102220.00;;;11.03;71.50
55291;BME280;41155;39.768;2.712;2023-01-29T11:13:16;102189.28;;;10.98;76.40
55291;BME280;41155;39.768;2.712;2023-01-29T11:15:42;102171.84;;;10.55;75.95
55291;BME280;41155;39.768;2.712;2023-01-29T11:18:10;102160.63;;;9.80;79.00
55291;BME280;41155;39.768;2.712;2023-01-29T11:20:39;102164.63;;;9.31;81.59
55291;BME280;41155;39.768;2.712;2023-01-29T11:23:17;102162.13;;;9.03;84.02
55291;BME280;41155;39.768;2.712;2023-01-29T11:25:51;102156.94;;;9.01;85.36
55291;BME280;41155;39.768;2.712;2023-01-29T11:28:43;102163.59;;;9.32;87.36
55291;BME280;41155;39.768;2.712;2023-01-29T11:31:44;102147.72;;;10.60;81.05
55291;BME280;41155;39.768;2.712;2023-01-29T11:34:19;102153.69;;;10.17;80.47
55291;BME280;41155;39.768;2.712;2023-01-29T11:36:45;102147.59;;;9.70;82.58
55291;BME280;41155;39.768;2.712;2023-01-29T11:41:53;102131.47;;;9.31;84.77
55291;BME280;41155;39.768;2.712;2023-01-29T11:44:25;102140.97;;;9.66;86.40
55291;BME280;41155;39.768;2.712;2023-01-29T11:46:54;102125.63;;;9.67;85.33
55291;BME280;41155;39.768;2.712;2023-01-29T11:49:30;102130.78;;;9.68;87.16
55291;BME280;41155;39.768;2.712;2023-01-29T11:51:59;102119.84;;;9.50;87.80
55291;BME280;41155;39.768;2.712;2023-01-29T11:54:31;102122.34;;;9.38;85.88
55291;BME280;41155;39.768;2.712;2023-01-29T11:56:58;102103.06;;;9.35;88.99
55291;BME280;41155;39.768;2.712;2023-01-29T12:02:04;102116.94;;;9.38;90.53
55291;BME280;41155;39.768;2.712;2023-01-29T12:04:31;102108.03;;;9.38;91.13
55291;BME280;41155;39.768;2.712;2023-01-29T12:06:57;102101.81;;;9.31;92.03
55291;BME280;41155;39.768;2.712;2023-01-29T12:09:24;102099.09;;;9.37;91.74
55291;BME280;41155;39.768;2.712;2023-01-29T12:11:54;102106.53;;;9.48;91.64
55291;BME280;41155;39.768;2.712;2023-01-29T12:14:31;102116.28;;;9.69;91.84
55291;BME280;41155;39.768;2.712;2023-01-29T12:17:05;102136.13;;;10.02;89.16
55291;BME280;41155;39.768;2.712;2023-01-29T12:19:43;102132.69;;;9.55;86.60
55291;BME280;41155;39.768;2.712;2023-01-29T12:22:21;102147.66;;;9.17;87.06
55291;BME280;41155;39.768;2.712;2023-01-29T12:25:07;102159.19;;;8.78;90.47
55291;BME280;41155;39.768;2.712;2023-01-29T12:27:50;102155.63;;;8.64;91.67
55291;BME280;41155;39.768;2.712;2023-01-29T12:30:30;102141.03;;;8.38;93.28
55291;BME280;41155;39.768;2.712;2023-01-29T12:35:52;102113.19;;;8.11;97.15
55291;BME280;41155;39.768;2.712;2023-01-29T12:38:21;102110.09;;;8.14;98.93
55291;BME280;41155;39.768;2.712;2023-01-29T12:40:54;102103.84;;;8.07;99.40
55291;BME280;41155;39.768;2.712;2023-01-29T12:43:37;102107.53;;;8.00;99.79
55291;BME280;41155;39.768;2.712;2023-01-29T12:46:05;102109.44;;;8.06;98.89
55291;BME280;41155;39.768;2.712;2023-01-29T12:48:35;102092.88;;;8.02;97.77
55291;BME280;41155;39.768;2.712;2023-01-29T12:51:08;102098.50;;;8.21;96.01
55291;BME280;41155;39.768;2.712;2023-01-29T12:53:38;102089.72;;;8.47;95.35
55291;BME280;41155;39.768;2.712;2023-01-29T12:56:22;102095.78;;;8.62;94.91
55291;BME280;41155;39.768;2.712;2023-01-29T12:58:53;102095.97;;;8.67;96.90
55291;BME280;41155;39.768;2.712;2023-01-29T13:01:27;102101.59;;;8.79;96.50
55291;BME280;41155;39.768;2.712;2023-01-29T13:06:49;102099.72;;;8.66;95.37
55291;BME280;41155;39.768;2.712;2023-01-29T13:09:23;102111.13;;;8.68;94.61
55291;BME280;41155;39.768;2.712;2023-01-29T13:12:04;102100.72;;;8.58;91.97
55291;BME280;41155;39.768;2.712;2023-01-29T13:14:47;102106.91;;;8.39;90.15
55291;BME280;41155;39.768;2.712;2023-01-29T13:17:25;102082.00;;;8.30;94.69
55291;BME280;41155;39.768;2.712;2023-01-29T13:19:54;102089.72;;;8.47;96.52
55291;BME280;41155;39.768;2.712;2023-01-29T13:22:24;102085.19;;;8.54;98.81
55291;BME280;41155;39.768;2.712;2023-01-29T13:24:51;102070.38;;;8.23;98.22
55291;BME280;41155;39.768;2.712;2023-01-29T13:27:25;102067.97;;;8.42;98.15
55291;BME280;41155;39.768;2.712;2023-01-29T13:29:52;102081.41;;;8.42;98.19
55291;BME280;41155;39.768;2.712;2023-01-29T13:32:24;102074.81;;;8.44;100.00
55291;BME280;41155;39.768;2.712;2023-01-29T13:34:51;102079.38;;;8.50;100.00
55291;BME280;41155;39.768;2.712;2023-01-29T13:37:41;102065.94;;;8.57;100.00
55291;BME280;41155;39.768;2.712;2023-01-29T13:40:20;102072.56;;;8.68;99.56
55291;BME280;41155;39.768;2.712;2023-01-29T13:42:48;102063.88;;;8.66;99.84
55291;BME280;41155;39.768;2.712;2023-01-29T13:45:34;102077.94;;;8.61;99.26
55291;BME280;41155;39.768;2.712;2023-01-29T13:48:26;102063.03;;;8.52;98.59
55291;BME280;41155;39.768;2.712;2023-01-29T13:50:54;102065.41;;;8.27;95.99
55291;BME280;41155;39.768;2.712;2023-01-29T13:53:25;102076.91;;;8.49;97.15
55291;BME280;41155;39.768;2.712;2023-01-29T13:55:51;102080.00;;;8.52;96.05
55291;BME280;41155;39.768;2.712;2023-01-29T14:01:03;102085.00;;;8.82;99.62
55291;BME280;41155;39.768;2.712;2023-01-29T14:13:38;102070.47;;;9.43;99.22
55291;BME280;41155;39.768;2.712;2023-01-29T14:18:30;102065.06;;;9.56;98.09
55291;BME280;41155;39.768;2.712;2023-01-29T14:21:06;102086.63;;;9.56;93.33
55291;BME280;41155;39.768;2.712;2023-01-29T14:23:52;102095.16;;;9.33;94.95
55291;BME280;41155;39.768;2.712;2023-01-29T14:31:57;102121.09;;;8.94;96.68
55291;BME280;41155;39.768;2.712;2023-01-29T14:34:41;102115.22;;;8.64;96.73
55291;BME280;41155;39.768;2.712;2023-01-29T14:39:50;102111.06;;;8.48;97.92
55291;BME280;41155;39.768;2.712;2023-01-29T14:42:26;102130.09;;;8.47;99.30
55291;BME280;41155;39.768;2.712;2023-01-29T14:53:04;102136.19;;;8.27;100.00
55291;BME280;41155;39.768;2.712;2023-01-29T14:55:42;102133.47;;;8.07;100.00
55291;BME280;41155;39.768;2.712;2023-01-29T14:58:14;102135.63;;;7.90;100.00
55291;BME280;41155;39.768;2.712;2023-01-29T15:00:44;102136.88;;;7.95;100.00
55291;BME280;41155;39.768;2.712;2023-01-29T15:03:19;102127.91;;;7.81;100.00
55291;BME280;41155;39.768;2.712;2023-01-29T15:05:47;102129.75;;;7.74;100.00
55291;BME280;41155;39.768;2.712;2023-01-29T15:08:26;102116.53;;;7.44;100.00
55291;BME280;41155;39.768;2.712;2023-01-29T15:10:59;102109.38;;;7.58;100.00
55291;BME280;41155;39.768;2.712;2023-01-29T15:17:14;102115.47;;;7.73;100.00
55291;BME280;41155;39.768;2.712;2023-01-29T15:19:36;102119.25;;;7.51;100.00
55291;BME280;41155;39.768;2.712;2023-01-29T15:22:17;102118.41;;;7.43;100.00
55291;BME280;41155;39.768;2.712;2023-01-29T15:24:43;102114.25;;;7.41;100.00
55291;BME280;41155;39.768;2.712;2023-01-29T15:27:17;102121.69;;;7.45;100.00
55291;BME280;41155;39.768;2.712;2023-01-29T15:29:48;102116.31;;;7.45;100.00
55291;BME280;41155;39.768;2.712;2023-01-29T15:32:32;102121.50;;;7.47;100.00
55291;BME280;41155;39.768;2.712;2023-01-29T15:34:59;102118.31;;;7.37;100.00
55291;BME280;41155;39.768;2.712;2023-01-29T15:37:28;102121.31;;;7.48;100.00